Time;durP1;ratioP1;P1;durP2;ratioP2;P2;SDS_P1;SDS_P2;PMS_P1;PMS_P2;Temp;Humidity;BMP_temperature;BMP_pressure;BME280_temperature;BME280_humidity;BME280_pressure;Samples;Min_cycle;Max_cycle;Signal;HPM_P1;HPM_P2
2022/06/24 00:02:10;;;;;;;30.88;20.73;;;20.50;99.90;;;;;;5070510;28;20064;-74
2022/06/24 00:04:38;;;;;;;32.85;21.67;;;20.40;99.90;;;;;;5084645;28;20036;-74
2022/06/24 00:07:15;;;;;;;32.88;21.25;;;20.40;99.90;;;;;;5074458;28;20024;-74
2022/06/24 00:09:42;;;;;;;30.65;21.02;;;20.10;99.90;;;;;;5074584;28;20028;-74
2022/06/24 00:12:20;;;;;;;27.20;18.42;;;19.90;99.90;;;;;;5074846;28;20035;-75
2022/06/24 00:14:58;;;;;;;26.00;18.70;;;20.00;99.90;;;;;;5074369;28;20033;-74
2022/06/24 00:17:28;;;;;;;25.67;17.80;;;20.00;99.90;;;;;;5074559;28;20090;-74
2022/06/24 00:19:58;;;;;;;27.00;17.77;;;20.00;99.90;;;;;;5074075;28;20056;-75
2022/06/24 00:22:26;;;;;;;28.60;16.90;;;20.00;99.90;;;;;;5074496;28;20043;-75
2022/06/24 00:25:19;;;;;;;25.98;17.30;;;20.00;99.90;;;;;;5074175;28;20043;-74
2022/06/24 00:28:03;;;;;;;22.95;15.90;;;20.00;99.90;;;;;;5074417;28;20036;-74
2022/06/24 00:30:35;;;;;;;21.42;14.18;;;20.00;99.90;;;;;;5056440;28;20089;-74
2022/06/24 00:33:10;;;;;;;18.05;12.48;;;19.90;99.90;;;;;;5056284;28;20486;-74
2022/06/24 00:35:47;;;;;;;19.92;13.50;;;19.90;99.90;;;;;;5073635;28;20024;-74
2022/06/24 00:38:23;;;;;;;23.10;13.43;;;19.90;99.90;;;;;;5074154;28;20055;-74
2022/06/24 00:40:56;;;;;;;26.73;13.98;;;19.90;99.90;;;;;;5074249;28;20041;-74
2022/06/24 00:43:31;;;;;;;22.33;13.43;;;19.90;99.90;;;;;;5074029;28;20036;-74
2022/06/24 00:46:04;;;;;;;21.90;14.43;;;19.90;99.90;;;;;;5073922;28;20032;-73
2022/06/24 00:48:33;;;;;;;22.13;13.90;;;19.80;99.90;;;;;;5087078;28;20024;-72
2022/06/24 00:50:59;;;;;;;21.52;13.95;;;19.80;99.90;;;;;;5073334;28;20079;-74
2022/06/24 00:53:25;;;;;;;20.42;13.07;;;19.70;99.90;;;;;;5074012;28;20655;-74
2022/06/24 00:55:52;;;;;;;19.23;13.65;;;19.50;99.90;;;;;;5073676;28;20028;-74
2022/06/24 00:58:18;;;;;;;18.33;13.23;;;19.40;99.90;;;;;;5073759;28;20024;-74
2022/06/24 01:00:49;;;;;;;18.30;12.32;;;19.40;99.90;;;;;;5073389;28;20609;-73
2022/06/24 01:03:15;;;;;;;19.67;13.20;;;19.40;99.90;;;;;;5073809;28;20075;-74
2022/06/24 01:05:42;;;;;;;19.40;11.85;;;19.40;99.90;;;;;;5073410;28;20382;-73
2022/06/24 01:08:12;;;;;;;21.80;13.60;;;19.40;99.90;;;;;;5073657;28;20047;-73
2022/06/24 01:10:38;;;;;;;18.63;12.35;;;19.40;99.90;;;;;;5073406;28;20021;-73
2022/06/24 01:13:11;;;;;;;19.92;13.90;;;19.40;99.90;;;;;;5073269;28;20475;-73
2022/06/24 01:15:38;;;;;;;17.95;12.48;;;19.40;99.90;;;;;;5073715;28;20044;-74
2022/06/24 01:18:04;;;;;;;20.85;13.10;;;19.40;99.90;;;;;;5072160;28;20028;-74
2022/06/24 01:20:30;;;;;;;18.48;11.77;;;19.40;99.90;;;;;;5073128;28;20044;-73
2022/06/24 01:22:56;;;;;;;18.75;12.13;;;19.40;99.90;;;;;;5073277;28;20429;-73
2022/06/24 01:25:22;;;;;;;18.95;12.38;;;19.50;99.90;;;;;;5073291;28;20033;-74
2022/06/24 01:27:48;;;;;;;17.40;10.60;;;19.50;99.90;;;;;;5073283;28;20021;-73
2022/06/24 01:30:14;;;;;;;16.80;11.60;;;19.40;99.90;;;;;;5072916;28;20051;-74
2022/06/24 01:32:40;;;;;;;18.20;12.15;;;19.50;99.90;;;;;;5073015;28;20032;-73
2022/06/24 01:35:06;;;;;;;20.20;11.95;;;19.40;99.90;;;;;;5072960;28;20024;-74
2022/06/24 01:37:32;;;;;;;19.38;12.63;;;19.40;99.90;;;;;;5072946;28;20024;-73
2022/06/24 01:39:58;;;;;;;22.40;12.98;;;19.30;99.90;;;;;;5072916;28;20032;-74
2022/06/24 01:42:23;;;;;;;20.92;13.57;;;19.30;99.90;;;;;;5072828;28;20024;-74
2022/06/24 01:44:49;;;;;;;18.70;13.27;;;19.30;99.90;;;;;;5072849;28;20032;-74
2022/06/24 01:47:15;;;;;;;17.52;12.60;;;19.30;99.90;;;;;;5072508;28;20078;-74
2022/06/24 01:49:41;;;;;;;25.67;14.60;;;19.10;99.90;;;;;;5072732;28;20035;-74
2022/06/24 01:52:07;;;;;;;22.60;13.57;;;19.10;99.90;;;;;;5072728;28;20520;-74
2022/06/24 01:54:32;;;;;;;20.35;13.30;;;19.10;99.90;;;;;;5072705;28;20035;-74
2022/06/24 01:56:58;;;;;;;18.30;12.00;;;19.10;99.90;;;;;;5072463;28;20420;-72
2022/06/24 01:59:24;;;;;;;19.40;12.48;;;19.10;99.90;;;;;;5072290;28;20040;-74
2022/06/24 02:01:50;;;;;;;18.92;12.65;;;19.00;99.90;;;;;;5072782;28;20023;-73
2022/06/24 02:04:16;;;;;;;18.23;12.95;;;19.10;99.90;;;;;;5073376;28;20458;-73
2022/06/24 02:06:42;;;;;;;20.67;13.13;;;19.10;99.90;;;;;;5081898;28;20024;-74
2022/06/24 02:09:08;;;;;;;18.58;12.27;;;19.10;99.90;;;;;;5077142;28;20037;-73
2022/06/24 02:14:21;;;;;;;19.13;12.45;;;19.00;99.90;;;;;;5071784;28;20027;-73
2022/06/24 02:16:47;;;;;;;20.77;12.07;;;18.90;99.90;;;;;;5072157;28;20028;-73
2022/06/24 02:19:13;;;;;;;18.20;11.88;;;19.00;99.90;;;;;;5053948;28;20053;-73
2022/06/24 02:21:39;;;;;;;20.17;12.55;;;18.80;99.90;;;;;;5072069;28;20025;-74
2022/06/24 02:24:05;;;;;;;17.92;12.93;;;18.70;99.90;;;;;;5072066;28;20031;-73
2022/06/24 02:26:31;;;;;;;18.73;12.43;;;18.70;99.90;;;;;;5071895;28;20025;-72
2022/06/24 02:28:57;;;;;;;21.00;13.00;;;18.70;99.90;;;;;;5053771;28;20078;-71
2022/06/24 02:31:23;;;;;;;17.55;12.82;;;18.60;99.90;;;;;;5071979;28;20033;-74
2022/06/24 02:33:49;;;;;;;18.60;12.40;;;18.50;99.90;;;;;;5071990;28;20095;-74
2022/06/24 02:36:16;;;;;;;17.25;11.90;;;18.50;99.90;;;;;;5071503;28;20028;-74
2022/06/24 02:38:42;;;;;;;18.75;13.00;;;18.40;99.90;;;;;;5071800;28;20024;-74
2022/06/24 02:41:08;;;;;;;15.65;11.18;;;18.30;99.90;;;;;;5071686;28;20482;-74
2022/06/24 02:43:36;;;;;;;21.50;11.95;;;18.30;99.90;;;;;;5071005;28;20059;-73
2022/06/24 02:46:05;;;;;;;14.48;10.20;;;18.20;99.90;;;;;;5071432;28;20020;-74
2022/06/24 02:48:33;;;;;;;18.70;9.82;;;18.10;99.90;;;;;;5071826;28;20025;-73
2022/06/24 02:51:00;;;;;;;17.45;10.85;;;18.00;99.90;;;;;;5071342;28;20127;-75
2022/06/24 02:53:28;;;;;;;16.40;9.43;;;18.00;99.90;;;;;;5071783;28;20029;-73
2022/06/24 02:56:03;;;;;;;14.50;10.10;;;18.10;99.90;;;;;;5071435;28;20035;-74
2022/06/24 02:58:32;;;;;;;13.55;10.00;;;18.10;99.90;;;;;;5071454;28;20036;-74
2022/06/24 03:00:59;;;;;;;14.80;10.38;;;18.10;99.90;;;;;;5071306;28;20040;-75
2022/06/24 03:03:26;;;;;;;14.18;8.90;;;18.10;99.90;;;;;;5071587;28;20060;-74
2022/06/24 03:05:52;;;;;;;16.95;10.85;;;17.90;99.90;;;;;;5066667;28;20036;-74
2022/06/24 03:08:21;;;;;;;16.25;9.90;;;18.00;99.90;;;;;;5067371;28;20545;-73
2022/06/24 03:10:48;;;;;;;14.75;9.93;;;18.00;99.90;;;;;;5067993;28;20021;-74
2022/06/24 03:13:14;;;;;;;13.00;9.18;;;18.10;99.90;;;;;;5062916;28;20040;-74
2022/06/24 03:15:43;;;;;;;14.98;8.93;;;18.20;99.90;;;;;;5064700;28;20027;-74
2022/06/24 03:18:11;;;;;;;16.80;10.75;;;18.30;99.90;;;;;;5071032;28;20116;-73
2022/06/24 03:20:38;;;;;;;13.88;9.85;;;18.30;99.90;;;;;;5070945;28;20036;-74
2022/06/24 03:23:04;;;;;;;19.15;11.10;;;18.30;99.90;;;;;;5071185;28;20052;-74
2022/06/24 03:25:30;;;;;;;17.75;10.20;;;18.30;99.90;;;;;;5071347;28;20079;-75
2022/06/24 03:27:57;;;;;;;15.05;10.48;;;18.30;99.90;;;;;;5070037;28;20100;-73
2022/06/24 03:30:23;;;;;;;17.35;10.75;;;18.40;99.90;;;;;;5072510;28;20016;-72
2022/06/24 03:32:49;;;;;;;20.40;10.55;;;18.50;99.90;;;;;;5070276;28;20081;-68
2022/06/24 03:35:15;;;;;;;19.55;10.15;;;18.70;99.90;;;;;;5071132;28;20150;-71
2022/06/24 03:37:41;;;;;;;15.50;9.88;;;18.80;99.90;;;;;;5069634;28;20467;-70
2022/06/24 03:40:08;;;;;;;17.33;11.55;;;18.90;99.90;;;;;;5067931;28;20047;-70
2022/06/24 03:42:33;;;;;;;16.90;10.02;;;19.00;99.90;;;;;;5059467;28;20036;-73
2022/06/24 03:44:59;;;;;;;16.15;9.30;;;20.00;99.90;;;;;;5073638;28;20021;-73
2022/06/24 03:47:25;;;;;;;13.68;9.00;;;20.90;99.90;;;;;;5073854;28;20116;-73
2022/06/24 03:49:51;;;;;;;13.63;8.68;;;21.30;99.90;;;;;;5073198;28;20501;-75
2022/06/24 03:52:17;;;;;;;15.77;8.73;;;22.10;99.90;;;;;;5073563;28;20126;-72
2022/06/24 03:54:43;;;;;;;16.13;8.95;;;23.00;99.90;;;;;;5075890;28;20016;-74
2022/06/24 03:57:09;;;;;;;11.52;8.35;;;23.60;99.90;;;;;;5073223;28;20035;-74
2022/06/24 03:59:35;;;;;;;18.63;8.80;;;24.40;99.90;;;;;;5073389;28;20092;-74
2022/06/24 04:02:01;;;;;;;15.48;9.00;;;24.60;99.90;;;;;;5073277;28;20020;-74
2022/06/24 04:04:27;;;;;;;12.10;8.07;;;25.90;99.90;;;;;;5073326;28;20028;-73
2022/06/24 04:06:53;;;;;;;15.00;8.60;;;26.30;99.90;;;;;;5073041;28;20032;-75
2022/06/24 04:09:19;;;;;;;10.63;7.75;;;27.00;99.90;;;;;;5073531;28;20042;-75
2022/06/24 04:11:47;;;;;;;14.43;9.63;;;27.10;98.80;;;;;;5074207;28;20366;-74
2022/06/24 04:14:12;;;;;;;17.30;7.57;;;27.10;99.90;;;;;;5078483;28;20036;-73
2022/06/24 04:16:39;;;;;;;13.70;8.40;;;;;;;;;;5079455;28;20050;-74
2022/06/24 04:19:04;;;;;;;15.80;8.05;;;29.00;98.40;;;;;;5074347;28;20210;-73
2022/06/24 04:21:31;;;;;;;14.60;8.02;;;29.10;97.50;;;;;;5074352;28;20119;-74
2022/06/24 04:23:57;;;;;;;13.25;8.07;;;29.30;96.30;;;;;;5073920;28;20094;-74
2022/06/24 04:26:23;;;;;;;10.65;7.35;;;29.00;97.40;;;;;;5073672;28;20033;-74
2022/06/24 04:28:50;;;;;;;14.82;7.28;;;30.50;95.40;;;;;;5073460;28;20570;-73
2022/06/24 04:31:16;;;;;;;13.43;8.00;;;30.40;96.80;;;;;;5074478;28;20431;-67
2022/06/24 04:33:42;;;;;;;14.07;7.32;;;28.80;96.30;;;;;;5073830;28;20097;-75
2022/06/24 04:36:14;;;;;;;14.25;8.05;;;29.00;99.70;;;;;;5072987;28;20021;-73
2022/06/24 04:38:41;;;;;;;10.10;7.50;;;29.60;97.30;;;;;;5074601;28;20032;-75
2022/06/24 04:41:12;;;;;;;14.43;8.48;;;29.50;97.00;;;;;;5073777;28;20381;-74
2022/06/24 04:43:38;;;;;;;13.33;8.10;;;29.30;93.60;;;;;;5073853;28;20028;-73
2022/06/24 04:46:04;;;;;;;12.20;7.80;;;;;;;;;;5073417;28;20096;-74
2022/06/24 04:48:30;;;;;;;15.45;8.00;;;27.80;97.20;;;;;;5073133;28;20047;-74
2022/06/24 04:50:56;;;;;;;14.63;8.05;;;27.10;97.70;;;;;;5072182;28;20105;-74
2022/06/24 04:53:22;;;;;;;18.60;8.88;;;27.40;97.80;;;;;;5072874;28;20123;-74
2022/06/24 04:55:48;;;;;;;12.25;7.38;;;27.40;98.60;;;;;;5073174;28;20033;-73
2022/06/24 04:58:14;;;;;;;14.90;9.10;;;27.80;99.70;;;;;;5073277;28;20020;-75
2022/06/24 05:00:41;;;;;;;15.48;9.38;;;27.10;99.20;;;;;;5073581;28;20036;-74
2022/06/24 05:03:06;;;;;;;18.30;12.13;;;26.80;99.90;;;;;;5073469;28;20417;-73
2022/06/24 05:05:32;;;;;;;16.42;12.02;;;25.80;99.90;;;;;;5073101;28;20115;-71
2022/06/24 05:07:58;;;;;;;19.15;12.85;;;25.30;99.90;;;;;;5073589;28;20025;-73
2022/06/24 05:10:24;;;;;;;17.15;12.98;;;24.90;99.90;;;;;;5072771;28;20142;-73
2022/06/24 05:12:50;;;;;;;21.58;13.35;;;25.00;99.90;;;;;;5072733;28;20046;-73
2022/06/24 05:15:15;;;;;;;29.33;21.20;;;25.20;99.90;;;;;;5073229;28;20025;-72
2022/06/24 05:17:41;;;;;;;37.95;26.35;;;25.10;99.90;;;;;;5072911;28;20470;-73
2022/06/24 05:20:08;;;;;;;39.42;26.40;;;25.00;99.90;;;;;;5073407;28;20107;-72
2022/06/24 05:22:33;;;;;;;44.20;29.60;;;24.70;99.90;;;;;;5073035;28;20033;-72
2022/06/24 05:25:01;;;;;;;35.22;21.33;;;24.40;99.90;;;;;;5072769;28;20485;-72
2022/06/24 05:27:27;;;;;;;33.22;20.88;;;24.00;99.90;;;;;;5073124;28;20039;-73
2022/06/24 05:29:53;;;;;;;27.13;19.60;;;23.80;99.90;;;;;;5073544;28;20485;-73
2022/06/24 05:32:18;;;;;;;39.22;23.95;;;24.10;99.90;;;;;;5059060;28;20115;-72
2022/06/24 05:34:44;;;;;;;25.20;17.38;;;24.30;99.90;;;;;;5072860;28;20032;-73
2022/06/24 05:37:10;;;;;;;24.60;15.93;;;24.50;99.90;;;;;;5072893;28;20024;-72
2022/06/24 05:39:36;;;;;;;23.30;15.73;;;24.80;99.90;;;;;;5073112;28;20032;-73
2022/06/24 05:42:02;;;;;;;22.58;14.65;;;24.80;99.90;;;;;;5085300;28;20032;-72
2022/06/24 05:44:28;;;;;;;24.27;16.38;;;24.50;99.90;;;;;;5070940;28;20025;-72
2022/06/24 05:46:54;;;;;;;26.05;16.63;;;24.80;99.90;;;;;;5072408;28;20060;-70
2022/06/24 05:49:21;;;;;;;19.50;14.50;;;24.40;99.90;;;;;;5072314;28;20067;-73
2022/06/24 05:51:47;;;;;;;23.10;15.48;;;24.30;99.90;;;;;;5071622;28;20048;-72
2022/06/24 05:56:57;;;;;;;18.15;11.30;;;24.80;99.90;;;;;;5064739;28;20466;-74
2022/06/24 05:59:23;;;;;;;20.08;12.30;;;24.80;99.90;;;;;;5072037;28;20041;-74
2022/06/24 06:01:49;;;;;;;19.15;11.75;;;24.90;99.90;;;;;;5071561;28;20024;-73
2022/06/24 06:04:15;;;;;;;23.90;11.80;;;25.00;99.90;;;;;;5071244;28;20048;-72
2022/06/24 06:06:41;;;;;;;23.27;13.93;;;25.40;99.90;;;;;;5071526;28;20474;-74
2022/06/24 06:09:07;;;;;;;22.45;12.57;;;25.70;99.90;;;;;;5071372;28;20070;-75
2022/06/24 06:11:33;;;;;;;22.38;12.73;;;26.10;99.90;;;;;;5071719;28;20029;-74
2022/06/24 06:13:59;;;;;;;19.08;12.23;;;26.40;99.90;;;;;;5085170;28;20393;-74
2022/06/24 06:16:26;;;;;;;19.33;12.32;;;26.50;99.90;;;;;;5072465;28;20081;-74
2022/06/24 06:18:52;;;;;;;15.45;10.95;;;26.50;99.90;;;;;;5071077;28;20032;-74
2022/06/24 06:21:18;;;;;;;23.48;11.13;;;26.90;99.90;;;;;;5064433;28;20032;-72
2022/06/24 06:23:44;;;;;;;20.85;10.75;;;26.90;99.90;;;;;;5070367;28;20020;-74
2022/06/24 06:26:11;;;;;;;17.85;11.40;;;27.00;99.90;;;;;;5070493;28;20502;-73
2022/06/24 06:28:38;;;;;;;24.80;11.18;;;26.80;99.90;;;;;;5070140;28;20099;-73
2022/06/24 06:31:04;;;;;;;22.02;10.88;;;27.10;99.90;;;;;;5070923;28;20587;-73
2022/06/24 06:33:31;;;;;;;15.18;9.77;;;27.00;99.90;;;;;;5069941;28;20016;-73
2022/06/24 06:36:11;;;;;;;19.73;10.80;;;27.20;99.90;;;;;;5070913;28;20036;-73
2022/06/24 06:38:38;;;;;;;17.23;11.60;;;26.60;99.90;;;;;;5069821;28;20029;-73
2022/06/24 06:41:06;;;;;;;23.80;13.70;;;26.40;99.90;;;;;;5070740;28;20016;-72
2022/06/24 06:43:32;;;;;;;29.60;16.83;;;26.50;99.90;;;;;;5070899;28;20032;-73
2022/06/24 06:45:58;;;;;;;22.17;15.07;;;26.50;99.90;;;;;;5068124;28;20021;-73
2022/06/24 06:48:24;;;;;;;26.08;14.07;;;26.40;99.90;;;;;;5069002;28;20036;-73
2022/06/24 06:50:55;;;;;;;17.13;11.45;;;26.30;99.90;;;;;;5058161;28;20051;-65
2022/06/24 06:53:22;;;;;;;21.25;10.82;;;26.50;99.90;;;;;;5051372;28;20036;-73
2022/06/24 06:55:49;;;;;;;22.45;13.07;;;26.70;99.90;;;;;;5046770;28;20113;-74
2022/06/24 06:58:14;;;;;;;27.90;14.75;;;26.70;99.90;;;;;;5039652;28;20163;-73
2022/06/24 07:00:40;;;;;;;19.63;10.70;;;27.10;99.80;;;;;;5031573;28;20112;-74
2022/06/24 07:03:06;;;;;;;18.38;9.75;;;27.20;99.90;;;;;;5047194;28;20151;-73
2022/06/24 07:05:32;;;;;;;15.57;8.80;;;26.70;99.90;;;;;;5051111;28;20017;-73
2022/06/24 07:07:58;;;;;;;13.85;8.02;;;26.80;99.90;;;;;;5052209;28;20550;-73
2022/06/24 07:10:23;;;;;;;14.65;6.88;;;27.10;99.90;;;;;;5055073;28;20110;-73
2022/06/24 07:12:49;;;;;;;13.05;6.72;;;27.20;99.90;;;;;;5054860;28;20032;-73
2022/06/24 07:15:16;;;;;;;11.43;7.50;;;27.30;99.90;;;;;;5033891;28;20379;-73
2022/06/24 07:17:42;;;;;;;15.60;7.05;;;27.40;99.90;;;;;;5031055;28;20032;-72
2022/06/24 07:20:09;;;;;;;12.02;7.20;;;27.80;96.10;;;;;;5030779;28;20134;-73
2022/06/24 07:22:35;;;;;;;10.77;6.30;;;28.20;99.00;;;;;;5058863;28;20031;-74
2022/06/24 07:25:01;;;;;;;13.13;7.70;;;27.70;99.90;;;;;;5038793;28;20021;-74
2022/06/24 07:27:27;;;;;;;10.77;5.70;;;26.90;97.00;;;;;;5049697;28;20474;-73
2022/06/24 07:29:53;;;;;;;9.20;5.65;;;27.00;99.90;;;;;;5035691;28;20084;-73
2022/06/24 07:32:19;;;;;;;9.68;5.68;;;27.30;99.90;;;;;;5035102;28;20386;-72
2022/06/24 07:34:45;;;;;;;10.30;5.95;;;27.00;99.90;;;;;;5038143;28;20079;-71
2022/06/24 07:37:10;;;;;;;10.50;5.85;;;27.50;99.70;;;;;;5044784;28;20035;-73
2022/06/24 07:39:36;;;;;;;7.55;5.47;;;27.30;99.60;;;;;;5049325;28;20028;-73
2022/06/24 07:42:02;;;;;;;10.25;5.05;;;27.10;99.80;;;;;;5035979;28;20087;-72
2022/06/24 07:44:28;;;;;;;7.75;4.80;;;27.30;98.20;;;;;;5030648;28;20037;-72
2022/06/24 07:46:54;;;;;;;7.93;5.13;;;27.90;96.90;;;;;;5030736;28;20045;-73
2022/06/24 07:49:20;;;;;;;5.25;4.00;;;27.20;95.80;;;;;;5016575;28;20028;-73
2022/06/24 07:51:46;;;;;;;10.02;5.45;;;27.40;94.90;;;;;;5067275;28;20053;-69
2022/06/24 07:54:12;;;;;;;12.07;5.53;;;27.40;96.40;;;;;;5068422;28;20044;-70
2022/06/24 07:56:56;;;;;;;13.43;4.95;;;27.30;96.00;;;;;;5069697;28;20455;-72
2022/06/24 07:59:31;;;;;;;10.50;4.50;;;27.70;98.50;;;;;;5069489;28;20059;-68
2022/06/24 08:01:59;;;;;;;11.40;5.03;;;28.10;97.90;;;;;;5067935;28;20382;-72
2022/06/24 08:04:28;;;;;;;8.77;4.75;;;27.60;95.20;;;;;;5069746;28;20047;-70
2022/06/24 08:06:54;;;;;;;9.20;4.90;;;27.90;96.40;;;;;;5069759;28;20342;-74
2022/06/24 08:09:23;;;;;;;7.95;4.82;;;27.40;97.60;;;;;;5067385;28;20063;-72
2022/06/24 08:11:49;;;;;;;19.67;5.95;;;27.90;96.80;;;;;;5071843;28;20099;-72
2022/06/24 08:14:16;;;;;;;10.20;5.82;;;;;;;;;;5069536;28;20021;-73
2022/06/24 08:16:43;;;;;;;9.57;5.13;;;;;;;;;;5069079;28;20040;-72
2022/06/24 08:19:09;;;;;;;10.90;5.50;;;28.40;98.20;;;;;;5067139;28;20029;-73
2022/06/24 08:21:35;;;;;;;11.82;4.70;;;28.20;94.20;;;;;;5067594;28;20082;-73
2022/06/24 08:24:01;;;;;;;9.00;5.28;;;27.80;97.50;;;;;;5068759;28;20731;-72
2022/06/24 08:26:28;;;;;;;11.00;4.90;;;27.90;98.20;;;;;;5069334;28;20048;-74
2022/06/24 08:28:54;;;;;;;7.82;5.00;;;28.00;97.40;;;;;;5073240;28;20086;-73
2022/06/24 08:31:20;;;;;;;12.05;5.35;;;28.10;99.50;;;;;;5073751;28;20512;-72
2022/06/24 08:33:46;;;;;;;9.85;5.28;;;28.20;97.20;;;;;;5073424;28;20024;-73
2022/06/24 08:36:12;;;;;;;18.55;5.05;;;;;;;;;;5073722;28;20024;-76
2022/06/24 08:38:38;;;;;;;9.27;4.40;;;28.80;95.30;;;;;;5073283;28;20028;-75
2022/06/24 08:41:04;;;;;;;10.23;5.82;;;29.00;93.60;;;;;;5072855;28;20028;-74
2022/06/24 08:43:32;;;;;;;6.25;4.35;;;28.20;90.40;;;;;;5073674;28;20029;-75
2022/06/24 08:45:59;;;;;;;5.28;3.95;;;28.70;91.10;;;;;;5073102;28;20111;-73
2022/06/24 08:48:29;;;;;;;10.80;3.88;;;28.70;90.50;;;;;;5073212;28;20028;-76
2022/06/24 08:50:57;;;;;;;5.03;3.30;;;29.50;89.40;;;;;;5073106;28;20060;-76
2022/06/24 08:53:26;;;;;;;7.28;3.45;;;29.70;86.50;;;;;;5073637;28;20028;-76
2022/06/24 08:55:52;;;;;;;5.38;3.67;;;30.10;96.20;;;;;;5073115;28;20037;-75
2022/06/24 08:58:19;;;;;;;10.45;3.53;;;30.20;92.70;;;;;;5073163;28;20497;-75
2022/06/24 09:00:45;;;;;;;6.20;3.63;;;30.00;79.00;;;;;;5072119;28;20060;-66
2022/06/24 09:03:11;;;;;;;10.88;4.10;;;29.90;91.00;;;;;;5073203;28;20048;-71
2022/06/24 09:05:37;;;;;;;5.45;3.55;;;29.00;88.40;;;;;;5070890;28;20029;-73
2022/06/24 09:08:05;;;;;;;5.80;3.60;;;29.70;90.10;;;;;;5051211;28;20039;-74
2022/06/24 09:10:32;;;;;;;7.70;3.38;;;30.10;92.90;;;;;;5073211;28;20475;-74
2022/06/24 09:12:58;;;;;;;4.63;3.13;;;30.40;91.50;;;;;;5073492;28;20029;-74
2022/06/24 09:15:24;;;;;;;6.03;3.40;;;30.10;85.10;;;;;;5077145;28;20412;-74
2022/06/24 09:17:50;;;;;;;4.20;2.90;;;30.00;97.90;;;;;;5072755;28;20024;-76
2022/06/24 09:20:21;;;;;;;3.60;2.60;;;29.70;78.50;;;;;;5071861;28;20492;-67
2022/06/24 09:22:47;;;;;;;5.30;3.40;;;29.80;75.30;;;;;;5072069;28;20402;-75
2022/06/24 09:25:14;;;;;;;11.02;3.38;;;29.80;78.50;;;;;;5072558;28;20029;-75
2022/06/24 09:27:44;;;;;;;5.88;2.60;;;29.80;70.40;;;;;;5072342;28;20035;-69
2022/06/24 09:30:12;;;;;;;6.20;2.63;;;29.80;76.50;;;;;;5072184;28;20020;-74
2022/06/24 09:32:55;;;;;;;6.32;3.13;;;29.70;68.10;;;;;;5072994;28;20036;-69
2022/06/24 09:35:22;;;;;;;7.07;2.92;;;29.30;61.90;;;;;;5072464;28;20061;-76
2022/06/24 09:37:50;;;;;;;8.70;2.75;;;30.00;69.80;;;;;;5071390;28;20037;-73
2022/06/24 09:40:19;;;;;;;6.15;3.30;;;29.90;66.90;;;;;;5069282;28;20036;-75
2022/06/24 09:43:13;;;;;;;5.03;3.05;;;30.00;65.40;;;;;;5072154;28;20056;-75
2022/06/24 09:45:43;;;;;;;8.77;3.30;;;30.20;67.50;;;;;;5069620;28;20055;-75
2022/06/24 09:48:11;;;;;;;4.93;2.70;;;30.50;69.20;;;;;;5072598;28;20663;-70
2022/06/24 09:50:38;;;;;;;3.97;2.80;;;30.50;63.40;;;;;;5072288;28;20036;-75
2022/06/24 09:53:05;;;;;;;4.93;2.40;;;30.80;64.50;;;;;;5073012;28;20033;-73
2022/06/24 09:55:31;;;;;;;6.38;3.35;;;30.30;61.30;;;;;;5072287;28;20024;-75
2022/06/24 09:57:59;;;;;;;7.28;3.00;;;30.40;64.00;;;;;;5071781;28;20489;-76
2022/06/24 10:00:41;;;;;;;5.38;2.35;;;30.50;65.30;;;;;;5058388;28;20493;-74
2022/06/24 10:03:11;;;;;;;2.70;1.98;;;30.40;59.30;;;;;;5071419;28;20119;-75
2022/06/24 10:05:40;;;;;;;4.20;2.08;;;30.00;54.70;;;;;;5071730;28;20032;-73
2022/06/24 10:08:10;;;;;;;6.00;2.50;;;29.70;55.40;;;;;;5072907;28;20041;-75
2022/06/24 10:10:38;;;;;;;2.20;2.00;;;30.20;57.50;;;;;;5058251;28;20033;-74
2022/06/24 10:13:08;;;;;;;4.63;1.98;;;30.20;57.60;;;;;;5043133;28;20029;-70
2022/06/24 10:15:34;;;;;;;6.40;2.30;;;30.00;55.30;;;;;;5072342;28;20016;-74
2022/06/24 10:18:06;;;;;;;6.78;2.63;;;30.10;57.10;;;;;;5071623;28;20078;-70
2022/06/24 10:20:34;;;;;;;3.65;2.13;;;30.00;56.50;;;;;;5071488;28;20028;-73
2022/06/24 10:23:00;;;;;;;4.57;2.22;;;30.00;57.20;;;;;;5071740;28;20024;-75
2022/06/24 10:25:47;;;;;;;3.78;2.40;;;30.40;58.90;;;;;;5070976;28;20054;-75
2022/06/24 10:28:13;;;;;;;5.85;2.45;;;30.30;57.80;;;;;;5078236;28;20510;-70
2022/06/24 10:30:39;;;;;;;2.92;2.40;;;30.20;57.60;;;;;;5071298;28;20035;-65
2022/06/24 10:33:17;;;;;;;5.55;2.90;;;29.70;56.20;;;;;;5071463;28;20024;-76
2022/06/24 10:36:00;;;;;;;7.32;2.80;;;30.00;59.40;;;;;;5058142;28;20067;-74
2022/06/24 10:38:38;;;;;;;5.55;2.45;;;29.80;58.30;;;;;;5071309;28;20036;-75
2022/06/24 10:41:06;;;;;;;6.32;2.67;;;29.70;57.70;;;;;;5070886;28;20040;-68
2022/06/24 10:43:43;;;;;;;5.00;2.65;;;29.70;58.00;;;;;;5062678;28;20034;-74
2022/06/24 10:46:11;;;;;;;3.22;2.13;;;29.90;59.40;;;;;;5070988;28;20048;-74
2022/06/24 10:48:49;;;;;;;4.40;2.22;;;29.60;54.70;;;;;;5070985;28;20031;-64
2022/06/24 10:51:19;;;;;;;4.75;2.45;;;29.80;57.00;;;;;;5070581;28;20048;-69
2022/06/24 10:54:09;;;;;;;5.37;2.60;;;29.70;55.00;;;;;;5070341;28;20025;-73
2022/06/24 10:56:35;;;;;;;4.43;2.67;;;29.80;55.90;;;;;;5071019;28;20037;-73
2022/06/24 10:59:00;;;;;;;4.05;2.30;;;29.70;55.90;;;;;;5070747;28;20035;-69
2022/06/24 11:01:26;;;;;;;7.60;2.75;;;29.60;54.70;;;;;;5071016;28;20036;-74
2022/06/24 11:03:53;;;;;;;5.35;2.30;;;29.40;55.70;;;;;;5071160;28;20074;-72
2022/06/24 11:06:19;;;;;;;7.65;2.90;;;29.60;55.90;;;;;;5071261;28;20037;-67
2022/06/24 11:08:44;;;;;;;4.93;3.00;;;29.80;57.50;;;;;;5069863;28;20023;-74
2022/06/24 11:11:24;;;;;;;3.90;2.72;;;29.80;57.90;;;;;;5070261;28;20757;-73
2022/06/24 11:13:50;;;;;;;4.72;2.80;;;29.90;57.60;;;;;;5070824;28;20028;-69
2022/06/24 11:16:17;;;;;;;9.93;3.45;;;29.70;58.60;;;;;;5070844;28;20477;-73
2022/06/24 11:18:43;;;;;;;3.72;2.97;;;29.70;58.10;;;;;;5069873;28;20520;-73
2022/06/24 11:21:09;;;;;;;5.65;2.80;;;29.60;58.60;;;;;;5070785;28;20068;-72
2022/06/24 11:23:37;;;;;;;5.80;3.13;;;29.80;59.50;;;;;;5071096;28;20433;-70
2022/06/24 11:26:06;;;;;;;7.68;3.22;;;29.90;59.20;;;;;;5070949;28;20482;-72
2022/06/24 11:28:37;;;;;;;8.30;3.30;;;29.30;59.30;;;;;;5069880;28;20083;-72
2022/06/24 11:31:27;;;;;;;10.90;3.15;;;29.70;58.90;;;;;;5067671;28;20029;-74
2022/06/24 11:34:04;;;;;;;7.00;3.10;;;29.50;58.60;;;;;;5074177;28;20097;-72
2022/06/24 11:36:35;;;;;;;7.15;4.10;;;30.10;62.50;;;;;;5070779;28;20108;-72
2022/06/24 11:39:06;;;;;;;5.60;3.05;;;30.20;61.70;;;;;;5073193;28;20033;-67
2022/06/24 11:41:40;;;;;;;6.20;2.92;;;30.30;61.60;;;;;;5068055;28;20029;-73
2022/06/24 11:44:06;;;;;;;8.35;2.90;;;30.10;58.80;;;;;;5070805;28;20196;-74
2022/06/24 11:46:32;;;;;;;9.93;4.28;;;30.00;57.70;;;;;;5069930;28;20127;-73
2022/06/24 11:49:13;;;;;;;4.57;3.22;;;29.70;59.50;;;;;;5069025;28;20065;-73
2022/06/24 11:51:40;;;;;;;6.70;3.90;;;29.40;59.30;;;;;;5069343;28;20434;-74
2022/06/24 11:54:11;;;;;;;5.60;3.20;;;29.60;59.40;;;;;;5069717;28;20020;-64
2022/06/24 11:56:40;;;;;;;7.18;3.03;;;29.80;59.80;;;;;;5069236;28;20016;-72
2022/06/24 11:59:07;;;;;;;7.45;3.20;;;29.60;57.80;;;;;;5065331;28;20486;-70
2022/06/24 12:01:35;;;;;;;4.90;3.25;;;29.80;60.60;;;;;;5069887;28;20100;-74
2022/06/24 12:04:12;;;;;;;6.40;3.65;;;29.70;60.10;;;;;;5073193;28;20016;-76
2022/06/24 12:06:40;;;;;;;9.75;3.35;;;29.80;61.20;;;;;;5073153;28;20037;-72
2022/06/24 12:09:09;;;;;;;9.05;3.70;;;29.70;59.70;;;;;;5078378;28;20032;-63
2022/06/24 12:11:38;;;;;;;7.28;3.55;;;29.70;61.00;;;;;;5073261;28;20024;-77
2022/06/24 12:14:10;;;;;;;10.43;4.25;;;29.70;60.10;;;;;;5073107;28;20020;-77
2022/06/24 12:16:57;;;;;;;8.60;3.85;;;29.80;60.20;;;;;;5069007;28;20493;-74
2022/06/24 12:19:30;;;;;;;6.78;3.63;;;29.90;62.50;;;;;;5054528;28;20120;-74
2022/06/24 12:22:08;;;;;;;10.43;4.03;;;29.70;59.90;;;;;;5074724;28;20078;-74
2022/06/24 12:24:35;;;;;;;6.35;3.83;;;29.70;60.60;;;;;;5074836;28;20031;-74
2022/06/24 12:27:04;;;;;;;7.18;4.00;;;30.00;97.10;;;;;;5069977;28;20478;-71
2022/06/24 12:29:41;;;;;;;6.88;3.70;;;29.90;99.90;;;;;;5073743;28;20032;-73
2022/06/24 12:32:07;;;;;;;17.48;3.95;;;30.00;99.90;;;;;;5071494;28;20470;-63
2022/06/24 12:34:39;;;;;;;6.80;3.72;;;30.20;99.90;;;;;;5068885;28;20086;-66
2022/06/24 12:37:06;;;;;;;;;;;30.20;99.90;;;;;;5061273;28;20048;-74
2022/06/24 12:39:47;;;;;;;6.00;3.95;;;29.70;99.90;;;;;;5081466;28;20255;-73
2022/06/24 12:42:19;;;;;;;8.68;3.97;;;29.80;99.90;;;;;;5074270;28;20031;-73
2022/06/24 12:44:48;;;;;;;6.30;3.45;;;30.00;99.90;;;;;;5074180;28;20037;-73
2022/06/24 12:53:00;;;;;;;5.03;3.40;;;29.80;99.90;;;;;;5039641;28;20053;-73
2022/06/24 12:55:27;;;;;;;5.43;3.70;;;30.20;99.90;;;;;;5044190;28;20087;-72